sensor_id;sensor_type;location;lat;lon;timestamp;pressure;altitude;pressure_sealevel;temperature;humidity
12475;BME280;6302;42.624;23.334;2022-08-19T00:02:01;93119.63;;;23.30;77.65
12475;BME280;6302;42.624;23.334;2022-08-19T00:04:30;93108.75;;;23.24;77.79
12475;BME280;6302;42.624;23.334;2022-08-19T00:06:58;93102.25;;;23.16;77.91
12475;BME280;6302;42.624;23.334;2022-08-19T00:09:26;93115.59;;;23.20;77.59
12475;BME280;6302;42.624;23.334;2022-08-19T00:11:54;93113.56;;;23.15;77.25
12475;BME280;6302;42.624;23.334;2022-08-19T00:14:22;93105.19;;;23.13;77.32
12475;BME280;6302;42.624;23.334;2022-08-19T00:16:51;93118.72;;;23.13;76.87
12475;BME280;6302;42.624;23.334;2022-08-19T00:19:20;93117.22;;;23.12;76.33
12475;BME280;6302;42.624;23.334;2022-08-19T00:21:47;93125.31;;;23.12;76.17
12475;BME280;6302;42.624;23.334;2022-08-19T00:24:14;93130.72;;;23.12;75.82
12475;BME280;6302;42.624;23.334;2022-08-19T00:26:42;93133.91;;;23.10;75.26
12475;BME280;6302;42.624;23.334;2022-08-19T00:29:12;93136.88;;;23.12;74.45
12475;BME280;6302;42.624;23.334;2022-08-19T00:31:40;93136.13;;;23.12;74.08
12475;BME280;6302;42.624;23.334;2022-08-19T00:34:08;93129.53;;;23.13;74.82
12475;BME280;6302;42.624;23.334;2022-08-19T00:36:36;93129.22;;;23.11;75.73
12475;BME280;6302;42.624;23.334;2022-08-19T00:39:04;93126.25;;;23.09;77.00
12475;BME280;6302;42.624;23.334;2022-08-19T00:41:31;93130.66;;;23.06;77.58
12475;BME280;6302;42.624;23.334;2022-08-19T00:44:00;93128.63;;;23.01;77.58
12475;BME280;6302;42.624;23.334;2022-08-19T00:46:28;93127.16;;;23.00;77.87
12475;BME280;6302;42.624;23.334;2022-08-19T00:48:56;93118.50;;;22.96;78.24
12475;BME280;6302;42.624;23.334;2022-08-19T00:51:26;93126.34;;;22.94;77.65
12475;BME280;6302;42.624;23.334;2022-08-19T00:53:54;93117.22;;;22.92;77.75
12475;BME280;6302;42.624;23.334;2022-08-19T00:56:22;93119.66;;;22.90;78.21
12475;BME280;6302;42.624;23.334;2022-08-19T00:58:49;93114.00;;;22.88;78.90
12475;BME280;6302;42.624;23.334;2022-08-19T01:01:16;93118.38;;;22.85;79.05
12475;BME280;6302;42.624;23.334;2022-08-19T01:03:43;93113.19;;;22.82;79.42
12475;BME280;6302;42.624;23.334;2022-08-19T01:06:10;93119.81;;;22.81;80.28
12475;BME280;6302;42.624;23.334;2022-08-19T01:08:38;93120.28;;;22.79;79.37
12475;BME280;6302;42.624;23.334;2022-08-19T01:11:06;93121.97;;;22.77;79.77
12475;BME280;6302;42.624;23.334;2022-08-19T01:13:34;93110.13;;;22.74;80.22
12475;BME280;6302;42.624;23.334;2022-08-19T01:16:04;93115.28;;;22.72;80.90
12475;BME280;6302;42.624;23.334;2022-08-19T01:18:32;93115.50;;;22.69;81.13
12475;BME280;6302;42.624;23.334;2022-08-19T01:21:08;93117.63;;;22.64;81.41
12475;BME280;6302;42.624;23.334;2022-08-19T01:23:37;93111.22;;;22.62;81.38
12475;BME280;6302;42.624;23.334;2022-08-19T01:26:12;93103.75;;;22.57;80.30
12475;BME280;6302;42.624;23.334;2022-08-19T01:28:41;93106.00;;;22.58;80.39
12475;BME280;6302;42.624;23.334;2022-08-19T01:31:10;93115.31;;;22.57;80.58
12475;BME280;6302;42.624;23.334;2022-08-19T01:33:38;93112.63;;;22.57;82.18
12475;BME280;6302;42.624;23.334;2022-08-19T01:36:08;93120.19;;;22.53;82.70
12475;BME280;6302;42.624;23.334;2022-08-19T01:38:39;93115.19;;;22.46;84.05
12475;BME280;6302;42.624;23.334;2022-08-19T01:41:07;93118.56;;;22.41;84.92
12475;BME280;6302;42.624;23.334;2022-08-19T01:43:34;93110.84;;;22.34;85.71
12475;BME280;6302;42.624;23.334;2022-08-19T01:46:00;93117.63;;;22.30;85.62
12475;BME280;6302;42.624;23.334;2022-08-19T01:48:33;93116.63;;;22.27;84.99
12475;BME280;6302;42.624;23.334;2022-08-19T01:51:00;93121.50;;;22.23;84.48
12475;BME280;6302;42.624;23.334;2022-08-19T01:53:28;93113.88;;;22.22;83.84
12475;BME280;6302;42.624;23.334;2022-08-19T01:55:57;93123.16;;;22.21;84.84
12475;BME280;6302;42.624;23.334;2022-08-19T01:58:27;93119.19;;;22.16;85.46
12475;BME280;6302;42.624;23.334;2022-08-19T02:00:56;93111.22;;;22.07;86.68
12475;BME280;6302;42.624;23.334;2022-08-19T02:03:23;93116.66;;;22.13;87.28
12475;BME280;6302;42.624;23.334;2022-08-19T02:05:54;93104.97;;;22.01;87.88
12475;BME280;6302;42.624;23.334;2022-08-19T02:08:22;93111.88;;;22.02;88.86
12475;BME280;6302;42.624;23.334;2022-08-19T02:10:49;93114.75;;;21.98;88.51
12475;BME280;6302;42.624;23.334;2022-08-19T02:13:17;93118.84;;;21.94;88.16
12475;BME280;6302;42.624;23.334;2022-08-19T02:15:44;93115.31;;;21.88;88.88
12475;BME280;6302;42.624;23.334;2022-08-19T02:18:11;93106.19;;;21.85;88.89
12475;BME280;6302;42.624;23.334;2022-08-19T02:20:40;93103.69;;;21.82;88.89
12475;BME280;6302;42.624;23.334;2022-08-19T02:23:08;93111.78;;;21.82;88.52
12475;BME280;6302;42.624;23.334;2022-08-19T02:25:35;93117.63;;;21.80;89.07
12475;BME280;6302;42.624;23.334;2022-08-19T02:28:03;93123.66;;;21.75;88.42
12475;BME280;6302;42.624;23.334;2022-08-19T02:30:31;93124.16;;;21.74;88.86
12475;BME280;6302;42.624;23.334;2022-08-19T02:32:58;93117.25;;;21.73;88.78
12475;BME280;6302;42.624;23.334;2022-08-19T02:35:25;93123.88;;;21.72;89.73
12475;BME280;6302;42.624;23.334;2022-08-19T02:37:52;93120.91;;;21.70;89.96
12475;BME280;6302;42.624;23.334;2022-08-19T02:40:36;93125.28;;;21.67;89.44
12475;BME280;6302;42.624;23.334;2022-08-19T02:43:04;93130.19;;;21.69;90.39
12475;BME280;6302;42.624;23.334;2022-08-19T02:45:34;93127.22;;;21.67;90.92
12475;BME280;6302;42.624;23.334;2022-08-19T02:48:02;93128.34;;;21.60;89.74
12475;BME280;6302;42.624;23.334;2022-08-19T02:50:30;93122.47;;;21.62;88.50
12475;BME280;6302;42.624;23.334;2022-08-19T02:52:57;93125.19;;;21.62;90.69
12475;BME280;6302;42.624;23.334;2022-08-19T02:55:24;93124.63;;;21.58;91.58
12475;BME280;6302;42.624;23.334;2022-08-19T02:57:51;93133.91;;;21.57;91.82
12475;BME280;6302;42.624;23.334;2022-08-19T03:00:18;93132.16;;;21.54;92.42
12475;BME280;6302;42.624;23.334;2022-08-19T03:02:46;93135.75;;;21.51;93.06
12475;BME280;6302;42.624;23.334;2022-08-19T03:05:14;93142.09;;;21.48;93.58
12475;BME280;6302;42.624;23.334;2022-08-19T03:07:40;93136.88;;;21.44;93.92
12475;BME280;6302;42.624;23.334;2022-08-19T03:10:07;93135.38;;;21.43;94.24
12475;BME280;6302;42.624;23.334;2022-08-19T03:12:36;93131.41;;;21.38;95.07
12475;BME280;6302;42.624;23.334;2022-08-19T03:15:05;93131.13;;;21.36;96.28
12475;BME280;6302;42.624;23.334;2022-08-19T03:17:33;93126.56;;;21.28;97.08
12475;BME280;6302;42.624;23.334;2022-08-19T03:20:02;93120.16;;;21.25;97.72
12475;BME280;6302;42.624;23.334;2022-08-19T03:22:30;93114.19;;;21.21;98.82
12475;BME280;6302;42.624;23.334;2022-08-19T03:24:56;93119.78;;;21.18;99.29
12475;BME280;6302;42.624;23.334;2022-08-19T03:27:24;93112.78;;;21.11;100.00
12475;BME280;6302;42.624;23.334;2022-08-19T03:29:51;93121.06;;;21.08;99.09
12475;BME280;6302;42.624;23.334;2022-08-19T03:32:18;93115.81;;;21.04;99.86
12475;BME280;6302;42.624;23.334;2022-08-19T03:34:44;93120.16;;;21.02;100.00
12475;BME280;6302;42.624;23.334;2022-08-19T03:37:13;93121.84;;;20.99;100.00
12475;BME280;6302;42.624;23.334;2022-08-19T03:39:40;93118.59;;;20.95;100.00
12475;BME280;6302;42.624;23.334;2022-08-19T03:42:08;93125.75;;;20.98;100.00
12475;BME280;6302;42.624;23.334;2022-08-19T03:44:35;93128.44;;;20.98;100.00
12475;BME280;6302;42.624;23.334;2022-08-19T03:47:03;93126.94;;;20.97;100.00
12475;BME280;6302;42.624;23.334;2022-08-19T03:49:32;93135.31;;;20.99;100.00
12475;BME280;6302;42.624;23.334;2022-08-19T03:52:00;93138.47;;;20.98;98.68
12475;BME280;6302;42.624;23.334;2022-08-19T03:54:28;93142.00;;;21.04;98.30
12475;BME280;6302;42.624;23.334;2022-08-19T03:56:56;93151.72;;;21.10;97.49
12475;BME280;6302;42.624;23.334;2022-08-19T03:59:27;93153.78;;;21.15;98.56
12475;BME280;6302;42.624;23.334;2022-08-19T04:01:54;93149.69;;;21.20;98.69
12475;BME280;6302;42.624;23.334;2022-08-19T04:04:22;93158.81;;;21.22;98.01
12475;BME280;6302;42.624;23.334;2022-08-19T04:06:50;93161.78;;;21.24;97.37
12475;BME280;6302;42.624;23.334;2022-08-19T04:09:18;93159.34;;;21.26;97.36
12475;BME280;6302;42.624;23.334;2022-08-19T04:11:49;93162.44;;;21.34;97.78
12475;BME280;6302;42.624;23.334;2022-08-19T04:14:21;93158.06;;;21.36;97.33
12475;BME280;6302;42.624;23.334;2022-08-19T04:16:49;93162.53;;;21.39;97.16
12475;BME280;6302;42.624;23.334;2022-08-19T04:19:18;93163.09;;;21.44;97.43
12475;BME280;6302;42.624;23.334;2022-08-19T04:21:47;93169.78;;;21.48;96.83
12475;BME280;6302;42.624;23.334;2022-08-19T04:24:17;93168.69;;;21.55;95.62
12475;BME280;6302;42.624;23.334;2022-08-19T04:26:45;93165.16;;;21.63;96.86
12475;BME280;6302;42.624;23.334;2022-08-19T04:29:16;93173.34;;;21.69;98.50
12475;BME280;6302;42.624;23.334;2022-08-19T04:31:45;93170.00;;;21.74;97.32
12475;BME280;6302;42.624;23.334;2022-08-19T04:34:15;93165.91;;;21.78;96.82
12475;BME280;6302;42.624;23.334;2022-08-19T04:36:45;93168.16;;;21.80;97.30
12475;BME280;6302;42.624;23.334;2022-08-19T04:39:14;93161.34;;;21.84;96.64
12475;BME280;6302;42.624;23.334;2022-08-19T04:41:42;93172.59;;;21.97;95.66
12475;BME280;6302;42.624;23.334;2022-08-19T04:44:28;93162.47;;;22.07;91.97
12475;BME280;6302;42.624;23.334;2022-08-19T04:46:56;93163.28;;;22.13;91.98
12475;BME280;6302;42.624;23.334;2022-08-19T04:49:23;93163.47;;;22.24;91.47
12475;BME280;6302;42.624;23.334;2022-08-19T04:51:51;93163.34;;;22.33;89.39
12475;BME280;6302;42.624;23.334;2022-08-19T04:54:20;93164.84;;;22.34;88.82
12475;BME280;6302;42.624;23.334;2022-08-19T04:56:48;93163.44;;;22.39;89.86
12475;BME280;6302;42.624;23.334;2022-08-19T04:59:17;93172.81;;;22.43;90.73
12475;BME280;6302;42.624;23.334;2022-08-19T05:01:46;93172.69;;;22.52;89.93
12475;BME280;6302;42.624;23.334;2022-08-19T05:04:17;93167.13;;;22.56;90.53
12475;BME280;6302;42.624;23.334;2022-08-19T05:06:44;93179.75;;;22.64;90.21
12475;BME280;6302;42.624;23.334;2022-08-19T05:09:12;93178.91;;;22.73;88.60
12475;BME280;6302;42.624;23.334;2022-08-19T05:11:39;93176.56;;;22.81;88.57
12475;BME280;6302;42.624;23.334;2022-08-19T05:14:07;93181.13;;;22.95;89.42
12475;BME280;6302;42.624;23.334;2022-08-19T05:16:34;93173.84;;;23.01;87.16
12475;BME280;6302;42.624;23.334;2022-08-19T05:19:03;93175.66;;;23.09;84.55
12475;BME280;6302;42.624;23.334;2022-08-19T05:21:47;93171.59;;;23.19;83.29
12475;BME280;6302;42.624;23.334;2022-08-19T05:24:31;93172.94;;;23.29;80.53
12475;BME280;6302;42.624;23.334;2022-08-19T05:27:00;93177.78;;;23.40;79.04
12475;BME280;6302;42.624;23.334;2022-08-19T05:29:29;93164.97;;;23.41;78.73
12475;BME280;6302;42.624;23.334;2022-08-19T05:31:57;93169.50;;;23.49;78.72
12475;BME280;6302;42.624;23.334;2022-08-19T05:34:26;93158.47;;;23.53;78.28
12475;BME280;6302;42.624;23.334;2022-08-19T05:36:55;93173.38;;;23.68;79.98
12475;BME280;6302;42.624;23.334;2022-08-19T05:39:23;93174.09;;;23.69;80.85
12475;BME280;6302;42.624;23.334;2022-08-19T05:41:53;93176.06;;;23.68;80.86
12475;BME280;6302;42.624;23.334;2022-08-19T05:44:22;93175.44;;;23.79;80.74
12475;BME280;6302;42.624;23.334;2022-08-19T05:46:49;93184.81;;;23.83;82.10
12475;BME280;6302;42.624;23.334;2022-08-19T05:49:19;93182.63;;;23.87;81.04
12475;BME280;6302;42.624;23.334;2022-08-19T05:51:48;93185.09;;;23.85;81.03
12475;BME280;6302;42.624;23.334;2022-08-19T05:54:15;93184.34;;;23.85;81.86
12475;BME280;6302;42.624;23.334;2022-08-19T05:56:43;93189.66;;;24.00;81.93
12475;BME280;6302;42.624;23.334;2022-08-19T05:59:13;93177.44;;;24.10;81.75
12475;BME280;6302;42.624;23.334;2022-08-19T06:01:42;93183.34;;;24.08;82.37
12475;BME280;6302;42.624;23.334;2022-08-19T06:04:10;93187.09;;;24.16;81.54
12475;BME280;6302;42.624;23.334;2022-08-19T06:06:38;93179.19;;;24.13;82.35
12475;BME280;6302;42.624;23.334;2022-08-19T06:09:07;93190.63;;;24.28;82.14
12475;BME280;6302;42.624;23.334;2022-08-19T06:11:37;93191.19;;;24.37;80.41
12475;BME280;6302;42.624;23.334;2022-08-19T06:14:07;93187.56;;;24.46;81.90
12475;BME280;6302;42.624;23.334;2022-08-19T06:16:35;93188.31;;;24.52;81.54
12475;BME280;6302;42.624;23.334;2022-08-19T06:19:06;93194.53;;;24.58;81.62
12475;BME280;6302;42.624;23.334;2022-08-19T06:21:35;93192.06;;;24.60;81.13
12475;BME280;6302;42.624;23.334;2022-08-19T06:24:04;93194.16;;;24.76;80.97
12475;BME280;6302;42.624;23.334;2022-08-19T06:26:33;93190.31;;;24.88;79.84
12475;BME280;6302;42.624;23.334;2022-08-19T06:29:01;93182.97;;;25.00;78.74
12475;BME280;6302;42.624;23.334;2022-08-19T06:31:28;93187.88;;;25.01;79.35
12475;BME280;6302;42.624;23.334;2022-08-19T06:33:56;93189.38;;;25.02;78.79
12475;BME280;6302;42.624;23.334;2022-08-19T06:36:25;93199.25;;;25.05;78.45
12475;BME280;6302;42.624;23.334;2022-08-19T06:38:57;93201.72;;;25.03;80.14
12475;BME280;6302;42.624;23.334;2022-08-19T06:41:24;93187.69;;;25.10;78.13
12475;BME280;6302;42.624;23.334;2022-08-19T06:43:53;93191.38;;;25.07;79.36
12475;BME280;6302;42.624;23.334;2022-08-19T06:46:20;93185.50;;;25.14;77.03
12475;BME280;6302;42.624;23.334;2022-08-19T06:48:47;93190.97;;;25.26;76.40
12475;BME280;6302;42.624;23.334;2022-08-19T06:51:15;93189.78;;;25.38;75.91
12475;BME280;6302;42.624;23.334;2022-08-19T06:53:44;93202.91;;;25.45;72.87
12475;BME280;6302;42.624;23.334;2022-08-19T06:56:12;93198.72;;;25.55;71.38
12475;BME280;6302;42.624;23.334;2022-08-19T06:58:39;93198.97;;;25.51;72.79
12475;BME280;6302;42.624;23.334;2022-08-19T07:01:09;93194.53;;;25.54;73.19
12475;BME280;6302;42.624;23.334;2022-08-19T07:03:37;93198.28;;;25.67;72.33
12475;BME280;6302;42.624;23.334;2022-08-19T07:06:07;93215.28;;;25.68;70.14
12475;BME280;6302;42.624;23.334;2022-08-19T07:08:36;93203.22;;;25.74;71.28
12475;BME280;6302;42.624;23.334;2022-08-19T07:11:05;93204.72;;;25.98;70.96
12475;BME280;6302;42.624;23.334;2022-08-19T07:13:33;93210.41;;;26.05;69.50
12475;BME280;6302;42.624;23.334;2022-08-19T07:16:03;93213.63;;;26.09;70.07
12475;BME280;6302;42.624;23.334;2022-08-19T07:18:32;93213.66;;;26.20;69.06
12475;BME280;6302;42.624;23.334;2022-08-19T07:21:03;93212.44;;;26.21;69.88
12475;BME280;6302;42.624;23.334;2022-08-19T07:23:30;93209.97;;;26.29;69.22
12475;BME280;6302;42.624;23.334;2022-08-19T07:25:57;93212.19;;;26.36;69.64
12475;BME280;6302;42.624;23.334;2022-08-19T07:28:24;93211.44;;;26.46;67.42
12475;BME280;6302;42.624;23.334;2022-08-19T07:30:52;93206.50;;;26.51;68.43
12475;BME280;6302;42.624;23.334;2022-08-19T07:33:19;93215.38;;;26.68;70.17
12475;BME280;6302;42.624;23.334;2022-08-19T07:35:47;93213.91;;;26.78;67.22
12475;BME280;6302;42.624;23.334;2022-08-19T07:38:15;93207.94;;;26.96;67.37
12475;BME280;6302;42.624;23.334;2022-08-19T07:40:43;93213.09;;;27.05;66.62
12475;BME280;6302;42.624;23.334;2022-08-19T07:43:11;93205.38;;;27.26;64.86
12475;BME280;6302;42.624;23.334;2022-08-19T07:45:38;93202.38;;;27.35;65.54
12475;BME280;6302;42.624;23.334;2022-08-19T07:48:05;93207.81;;;27.40;65.59
12475;BME280;6302;42.624;23.334;2022-08-19T07:50:32;93207.44;;;27.60;63.26
12475;BME280;6302;42.624;23.334;2022-08-19T07:53:00;93208.19;;;27.66;63.12
12475;BME280;6302;42.624;23.334;2022-08-19T07:55:27;93205.63;;;27.80;61.54
12475;BME280;6302;42.624;23.334;2022-08-19T07:57:54;93216.97;;;27.89;61.13
12475;BME280;6302;42.624;23.334;2022-08-19T08:00:20;93212.44;;;28.03;58.02
12475;BME280;6302;42.624;23.334;2022-08-19T08:02:47;93197.59;;;28.04;57.53
12475;BME280;6302;42.624;23.334;2022-08-19T08:05:14;93210.09;;;28.18;58.62
12475;BME280;6302;42.624;23.334;2022-08-19T08:08:00;93209.84;;;28.21;57.76
12475;BME280;6302;42.624;23.334;2022-08-19T08:10:45;93207.53;;;28.31;58.83
12475;BME280;6302;42.624;23.334;2022-08-19T08:13:12;93204.91;;;28.50;55.59
12475;BME280;6302;42.624;23.334;2022-08-19T08:15:39;93197.47;;;28.50;55.31
12475;BME280;6302;42.624;23.334;2022-08-19T08:18:05;93195.53;;;28.75;54.77
12475;BME280;6302;42.624;23.334;2022-08-19T08:20:33;93202.56;;;28.89;49.47
12475;BME280;6302;42.624;23.334;2022-08-19T08:23:01;93202.06;;;28.90;47.22
12475;BME280;6302;42.624;23.334;2022-08-19T08:25:45;93191.13;;;28.96;45.51
12475;BME280;6302;42.624;23.334;2022-08-19T08:28:12;93196.72;;;29.03;44.41
12475;BME280;6302;42.624;23.334;2022-08-19T08:30:39;93198.03;;;29.21;45.23
12475;BME280;6302;42.624;23.334;2022-08-19T08:33:08;93196.75;;;29.28;45.07
12475;BME280;6302;42.624;23.334;2022-08-19T08:35:35;93195.34;;;29.40;46.43
12475;BME280;6302;42.624;23.334;2022-08-19T08:38:03;93195.78;;;29.44;45.13
12475;BME280;6302;42.624;23.334;2022-08-19T08:40:34;93207.19;;;29.48;46.33
12475;BME280;6302;42.624;23.334;2022-08-19T08:43:08;93194.25;;;29.48;44.97
12475;BME280;6302;42.624;23.334;2022-08-19T08:45:42;93190.91;;;29.55;44.47
12475;BME280;6302;42.624;23.334;2022-08-19T08:48:18;93184.38;;;29.83;43.81
12475;BME280;6302;42.624;23.334;2022-08-19T08:50:47;93192.84;;;29.98;41.48
12475;BME280;6302;42.624;23.334;2022-08-19T08:53:20;93190.94;;;30.11;40.67
12475;BME280;6302;42.624;23.334;2022-08-19T08:55:48;93190.19;;;30.11;40.22
12475;BME280;6302;42.624;23.334;2022-08-19T08:58:20;93182.94;;;30.13;40.63
12475;BME280;6302;42.624;23.334;2022-08-19T09:00:52;93167.91;;;30.07;38.86
12475;BME280;6302;42.624;23.334;2022-08-19T09:03:20;93179.16;;;30.35;38.43
12475;BME280;6302;42.624;23.334;2022-08-19T09:05:56;93178.03;;;30.44;38.69
12475;BME280;6302;42.624;23.334;2022-08-19T09:08:38;93183.28;;;30.55;37.83
12475;BME280;6302;42.624;23.334;2022-08-19T09:11:09;93177.66;;;30.66;37.59
12475;BME280;6302;42.624;23.334;2022-08-19T09:13:44;93169.97;;;30.77;39.42
12475;BME280;6302;42.624;23.334;2022-08-19T09:16:16;93173.47;;;31.04;36.35
12475;BME280;6302;42.624;23.334;2022-08-19T09:18:45;93171.28;;;31.03;35.08
12475;BME280;6302;42.624;23.334;2022-08-19T09:21:13;93170.75;;;31.04;35.38
12475;BME280;6302;42.624;23.334;2022-08-19T09:23:41;93165.69;;;31.21;35.95
12475;BME280;6302;42.624;23.334;2022-08-19T09:26:10;93169.81;;;31.28;35.73
12475;BME280;6302;42.624;23.334;2022-08-19T09:28:39;93168.31;;;31.27;34.10
12475;BME280;6302;42.624;23.334;2022-08-19T09:31:06;93168.72;;;31.31;34.32
12475;BME280;6302;42.624;23.334;2022-08-19T09:33:33;93164.09;;;31.39;33.91
12475;BME280;6302;42.624;23.334;2022-08-19T09:36:05;93166.00;;;31.44;34.39
12475;BME280;6302;42.624;23.334;2022-08-19T09:38:33;93158.72;;;31.60;34.59
12475;BME280;6302;42.624;23.334;2022-08-19T09:41:04;93151.66;;;31.64;34.09
12475;BME280;6302;42.624;23.334;2022-08-19T09:43:31;93152.78;;;31.69;33.41
12475;BME280;6302;42.624;23.334;2022-08-19T09:45:59;93160.22;;;31.81;33.51
12475;BME280;6302;42.624;23.334;2022-08-19T09:48:26;93152.13;;;31.76;32.57
12475;BME280;6302;42.624;23.334;2022-08-19T09:50:53;93148.72;;;31.83;32.68
12475;BME280;6302;42.624;23.334;2022-08-19T09:53:20;93151.16;;;31.86;32.26
12475;BME280;6302;42.624;23.334;2022-08-19T09:55:48;93159.06;;;31.90;32.13
12475;BME280;6302;42.624;23.334;2022-08-19T09:58:16;93144.47;;;31.95;33.30
12475;BME280;6302;42.624;23.334;2022-08-19T10:00:43;93146.53;;;32.15;32.34
12475;BME280;6302;42.624;23.334;2022-08-19T10:03:11;93140.31;;;32.35;32.43
12475;BME280;6302;42.624;23.334;2022-08-19T10:05:38;93139.19;;;32.51;31.81
12475;BME280;6302;42.624;23.334;2022-08-19T10:08:18;93132.72;;;32.69;30.19
12475;BME280;6302;42.624;23.334;2022-08-19T10:10:46;93135.59;;;32.56;31.19
12475;BME280;6302;42.624;23.334;2022-08-19T10:13:17;93131.75;;;32.59;30.17
12475;BME280;6302;42.624;23.334;2022-08-19T10:15:47;93125.25;;;32.70;31.14
12475;BME280;6302;42.624;23.334;2022-08-19T10:18:16;93119.81;;;32.77;29.86
12475;BME280;6302;42.624;23.334;2022-08-19T10:20:44;93123.88;;;32.84;29.16
12475;BME280;6302;42.624;23.334;2022-08-19T10:23:12;93124.16;;;32.73;28.54
12475;BME280;6302;42.624;23.334;2022-08-19T10:25:39;93118.31;;;32.76;29.75
12475;BME280;6302;42.624;23.334;2022-08-19T10:28:06;93116.88;;;32.75;29.51
12475;BME280;6302;42.624;23.334;2022-08-19T10:30:35;93113.06;;;32.78;28.93
12475;BME280;6302;42.624;23.334;2022-08-19T10:33:02;93112.84;;;32.76;28.75
12475;BME280;6302;42.624;23.334;2022-08-19T10:35:29;93119.44;;;32.73;29.06
12475;BME280;6302;42.624;23.334;2022-08-19T10:37:56;93112.50;;;32.80;28.15
12475;BME280;6302;42.624;23.334;2022-08-19T10:40:25;93111.72;;;32.72;27.89
12475;BME280;6302;42.624;23.334;2022-08-19T10:42:52;93111.63;;;32.85;27.47
12475;BME280;6302;42.624;23.334;2022-08-19T10:45:19;93109.84;;;32.95;28.20
12475;BME280;6302;42.624;23.334;2022-08-19T10:47:48;93104.09;;;33.14;27.72
12475;BME280;6302;42.624;23.334;2022-08-19T10:50:15;93116.88;;;33.39;28.26
12475;BME280;6302;42.624;23.334;2022-08-19T10:53:03;93104.28;;;33.52;27.14
12475;BME280;6302;42.624;23.334;2022-08-19T10:55:31;93111.31;;;33.60;26.91
12475;BME280;6302;42.624;23.334;2022-08-19T10:58:17;93104.91;;;33.73;25.80
12475;BME280;6302;42.624;23.334;2022-08-19T11:00:51;93101.56;;;33.59;26.93
12475;BME280;6302;42.624;23.334;2022-08-19T11:03:21;93095.72;;;33.70;27.37
12475;BME280;6302;42.624;23.334;2022-08-19T11:05:57;93105.13;;;33.82;29.27
12475;BME280;6302;42.624;23.334;2022-08-19T11:08:24;93098.00;;;33.94;26.96
12475;BME280;6302;42.624;23.334;2022-08-19T11:10:53;93089.00;;;33.86;27.75
12475;BME280;6302;42.624;23.334;2022-08-19T11:13:23;93093.94;;;33.80;28.11
12475;BME280;6302;42.624;23.334;2022-08-19T11:15:57;93092.50;;;33.94;28.28
12475;BME280;6302;42.624;23.334;2022-08-19T11:18:25;93099.50;;;34.11;27.75
12475;BME280;6302;42.624;23.334;2022-08-19T11:20:52;93088.69;;;34.05;27.58
12475;BME280;6302;42.624;23.334;2022-08-19T11:23:19;93090.47;;;34.02;27.19
12475;BME280;6302;42.624;23.334;2022-08-19T11:25:46;93085.88;;;33.82;27.76
12475;BME280;6302;42.624;23.334;2022-08-19T11:28:13;93086.63;;;33.98;27.32
12475;BME280;6302;42.624;23.334;2022-08-19T11:30:40;93088.88;;;34.15;27.41
12475;BME280;6302;42.624;23.334;2022-08-19T11:33:06;93081.19;;;34.36;27.08
12475;BME280;6302;42.624;23.334;2022-08-19T11:35:39;93076.41;;;34.44;27.63
12475;BME280;6302;42.624;23.334;2022-08-19T11:38:07;93074.03;;;34.33;27.82
12475;BME280;6302;42.624;23.334;2022-08-19T11:40:33;93072.75;;;34.11;27.38
12475;BME280;6302;42.624;23.334;2022-08-19T11:43:00;93073.78;;;34.00;28.13
12475;BME280;6302;42.624;23.334;2022-08-19T11:45:28;93070.13;;;33.98;27.83
12475;BME280;6302;42.624;23.334;2022-08-19T11:47:55;93063.16;;;33.89;27.56
12475;BME280;6302;42.624;23.334;2022-08-19T11:50:22;93057.91;;;33.48;28.47
12475;BME280;6302;42.624;23.334;2022-08-19T11:52:53;93064.41;;;33.73;28.92
12475;BME280;6302;42.624;23.334;2022-08-19T11:55:21;93058.75;;;33.79;28.96
12475;BME280;6302;42.624;23.334;2022-08-19T11:57:48;93066.84;;;33.99;28.88
12475;BME280;6302;42.624;23.334;2022-08-19T12:00:15;93065.97;;;34.05;27.43
12475;BME280;6302;42.624;23.334;2022-08-19T12:02:42;93061.69;;;33.96;28.48
12475;BME280;6302;42.624;23.334;2022-08-19T12:05:10;93057.84;;;33.99;28.35
12475;BME280;6302;42.624;23.334;2022-08-19T12:07:36;93054.00;;;33.94;28.05
12475;BME280;6302;42.624;23.334;2022-08-19T12:10:05;93052.19;;;33.97;27.87
12475;BME280;6302;42.624;23.334;2022-08-19T12:12:32;93051.06;;;34.00;28.69
12475;BME280;6302;42.624;23.334;2022-08-19T12:14:59;93048.69;;;33.89;27.81
12475;BME280;6302;42.624;23.334;2022-08-19T12:17:26;93058.75;;;33.86;27.39
12475;BME280;6302;42.624;23.334;2022-08-19T12:19:54;93047.41;;;33.75;27.81
12475;BME280;6302;42.624;23.334;2022-08-19T12:22:21;93041.00;;;33.87;28.34
12475;BME280;6302;42.624;23.334;2022-08-19T12:24:48;93037.88;;;33.98;27.82
12475;BME280;6302;42.624;23.334;2022-08-19T12:27:19;93029.81;;;34.00;27.77
12475;BME280;6302;42.624;23.334;2022-08-19T12:29:45;93028.72;;;33.96;27.56
12475;BME280;6302;42.624;23.334;2022-08-19T12:32:12;93030.41;;;34.14;28.40
12475;BME280;6302;42.624;23.334;2022-08-19T12:34:39;93026.16;;;34.36;28.37
12475;BME280;6302;42.624;23.334;2022-08-19T12:37:06;93023.41;;;34.58;27.45
12475;BME280;6302;42.624;23.334;2022-08-19T12:39:35;93030.16;;;34.65;26.92
12475;BME280;6302;42.624;23.334;2022-08-19T12:42:02;93020.09;;;34.45;27.61
12475;BME280;6302;42.624;23.334;2022-08-19T12:44:31;93019.94;;;34.28;28.30
12475;BME280;6302;42.624;23.334;2022-08-19T12:46:58;93020.09;;;34.30;28.86
12475;BME280;6302;42.624;23.334;2022-08-19T12:49:27;93008.00;;;34.33;27.74
12475;BME280;6302;42.624;23.334;2022-08-19T12:51:54;93018.44;;;34.42;28.71
12475;BME280;6302;42.624;23.334;2022-08-19T12:54:21;93015.88;;;34.44;27.85
12475;BME280;6302;42.624;23.334;2022-08-19T12:56:47;93007.44;;;34.42;28.09
12475;BME280;6302;42.624;23.334;2022-08-19T12:59:14;93017.16;;;34.50;27.76
12475;BME280;6302;42.624;23.334;2022-08-19T13:01:44;93011.09;;;34.52;27.73
12475;BME280;6302;42.624;23.334;2022-08-19T13:04:11;93014.97;;;34.49;27.73
12475;BME280;6302;42.624;23.334;2022-08-19T13:06:38;93007.44;;;34.42;27.36
12475;BME280;6302;42.624;23.334;2022-08-19T13:09:05;93010.94;;;34.27;27.31